createdAt,value
2019-06-07T00:00:48.232Z,27.63
2019-06-07T00:03:28.932Z,34.07
2019-06-07T00:05:46.413Z,27.40
2019-06-07T00:08:22.578Z,26.60
2019-06-07T00:10:44.549Z,28.60
2019-06-07T00:13:15.225Z,33.13
2019-06-07T00:15:42.685Z,30.63
2019-06-07T00:18:14.383Z,30.53
2019-06-07T00:20:40.894Z,35.47
2019-06-07T00:23:11.377Z,73.03
2019-06-07T00:25:39.161Z,50.63
2019-06-07T00:28:08.217Z,40.50
2019-06-07T00:30:50.859Z,57.63
2019-06-07T00:33:06.697Z,62.13
2019-06-07T00:35:35.024Z,68.87
2019-06-07T00:38:03.330Z,59.50
2019-06-07T00:40:40.232Z,68.03
2019-06-07T00:43:07.543Z,140.93
2019-06-07T00:45:37.056Z,84.77
2019-06-07T00:48:05.568Z,75.73
2019-06-07T00:50:33.989Z,78.87
2019-06-07T00:53:27.530Z,76.77
2019-06-07T00:55:35.165Z,79.10
2019-06-07T00:58:03.488Z,69.70
2019-06-07T01:00:31.792Z,55.50
2019-06-07T01:03:00.118Z,83.47
2019-06-07T01:05:31.440Z,66.73
2019-06-07T01:07:58.340Z,84.00
2019-06-07T01:10:51.611Z,81.50
2019-06-07T01:12:56.541Z,67.27
2019-06-07T01:15:28.558Z,74.73
2019-06-07T01:20:26.801Z,44.47
2019-06-07T01:22:55.262Z,82.03
2019-06-07T01:25:26.100Z,80.17
2019-06-07T01:27:53.413Z,54.80
2019-06-07T01:30:24.185Z,77.13
2019-06-07T01:32:52.185Z,102.10
2019-06-07T01:35:21.703Z,121.20
2019-06-07T01:37:50.388Z,131.73
2019-06-07T01:40:20.750Z,148.40
2019-06-07T01:42:48.869Z,182.47
2019-06-07T01:45:18.401Z,115.00
2019-06-07T01:47:47.376Z,236.40
2019-06-07T01:50:17.088Z,150.33
2019-06-07T01:52:45.581Z,75.17
2019-06-07T01:55:13.908Z,168.43
2019-06-07T01:57:47.915Z,180.27
2019-06-07T02:00:12.404Z,136.40
2019-06-07T02:02:40.703Z,239.30
2019-06-07T02:05:09.131Z,320.90
2019-06-07T02:07:37.364Z,211.00
2019-06-07T02:10:05.989Z,179.97
2019-06-07T02:12:42.772Z,267.03
2019-06-07T02:15:08.409Z,98.90
2019-06-07T02:17:36.904Z,290.43
2019-06-07T02:20:05.820Z,58.27
2019-06-07T02:22:34.112Z,69.43
2019-06-07T02:25:35.212Z,217.50
2019-06-07T02:27:32.784Z,99.50
2019-06-07T02:30:35.365Z,143.50
2019-06-07T02:32:34.662Z,133.57
2019-06-07T02:35:01.230Z,250.30
2019-06-07T02:37:32.316Z,178.07
2019-06-07T02:39:59.357Z,192.43
2019-06-07T02:42:30.864Z,118.50
2019-06-07T02:44:57.488Z,96.00
2019-06-07T02:47:27.984Z,215.87
2019-06-07T02:49:55.686Z,76.73
2019-06-07T02:52:27.368Z,105.90
2019-06-07T02:54:53.833Z,115.07
2019-06-07T02:57:22.061Z,197.27
2019-06-07T03:00:07.109Z,233.30
2019-06-07T03:02:20.252Z,101.23
2019-06-07T03:04:49.282Z,117.33
2019-06-07T03:07:17.985Z,252.87
2019-06-07T03:09:46.699Z,200.33
2019-06-07T03:12:15.904Z,259.33
2019-06-07T03:14:44.225Z,268.60
2019-06-07T03:17:15.633Z,149.30
2019-06-07T03:19:52.101Z,182.30
2019-06-07T03:22:20.325Z,460.73
2019-06-07T03:24:50.152Z,217.03
2019-06-07T03:27:43.191Z,239.93
2019-06-07T03:29:49.326Z,220.77
2019-06-07T03:32:17.589Z,307.43
2019-06-07T03:34:45.821Z,295.80
2019-06-07T03:37:14.144Z,180.53
2019-06-07T03:39:42.372Z,276.87
2019-06-07T03:42:10.658Z,175.70
2019-06-07T03:44:41.586Z,264.47
2019-06-07T03:47:08.789Z,254.83
2019-06-07T03:49:41.705Z,209.23
2019-06-07T03:52:07.010Z,243.47
2019-06-07T03:54:38.386Z,249.50
2019-06-07T03:57:05.202Z,241.97
2019-06-07T03:59:38.684Z,230.30
2019-06-07T04:02:03.399Z,178.60
2019-06-07T04:04:32.463Z,219.70
2019-06-07T04:07:01.588Z,208.07
2019-06-07T04:09:32.977Z,225.90
2019-06-07T04:11:59.729Z,178.50
2019-06-07T04:14:29.727Z,130.37
2019-06-07T04:16:57.869Z,146.33
2019-06-07T04:19:26.091Z,200.53
2019-06-07T04:21:54.355Z,129.30
2019-06-07T04:24:22.590Z,162.20
2019-06-07T04:26:50.856Z,231.13
2019-06-07T04:29:56.663Z,159.50
2019-06-07T04:31:49.060Z,245.60
2019-06-07T04:34:17.299Z,135.37
2019-06-07T04:36:58.534Z,155.70
2019-06-07T04:39:16.580Z,105.37
2019-06-07T04:41:46.492Z,99.70
2019-06-07T04:44:15.517Z,91.77
2019-06-07T04:46:45.297Z,75.10
2019-06-07T04:49:15.008Z,67.93
2019-06-07T04:51:43.640Z,68.57
2019-06-07T04:54:11.863Z,58.80
2019-06-07T04:56:44.136Z,42.77
2019-06-07T04:59:10.141Z,43.33
2019-06-07T05:01:41.440Z,46.83
2019-06-07T05:04:08.304Z,45.27
2019-06-07T05:06:39.614Z,37.70
2019-06-07T05:09:06.465Z,38.07
2019-06-07T05:11:36.487Z,35.43
2019-06-07T05:14:04.705Z,32.90
2019-06-07T05:16:35.225Z,32.23
2019-06-07T05:19:02.871Z,33.03
2019-06-07T05:21:49.378Z,36.10
2019-06-07T05:24:09.202Z,36.63
2019-06-07T05:26:32.887Z,41.33
2019-06-07T05:29:00.965Z,35.80
2019-06-07T05:31:31.090Z,37.97
2019-06-07T05:33:59.361Z,40.20
2019-06-07T05:36:27.657Z,39.57
2019-06-07T05:38:55.873Z,34.13
2019-06-07T05:41:24.249Z,29.53
2019-06-07T05:44:11.718Z,32.83
2019-06-07T05:46:22.385Z,28.43
2019-06-07T05:48:50.640Z,28.97
2019-06-07T05:51:18.875Z,26.00
2019-06-07T05:53:47.202Z,20.70
2019-06-07T05:56:15.691Z,18.43
2019-06-07T05:58:44.714Z,19.10
2019-06-07T06:01:42.368Z,19.00
2019-06-07T06:03:44.120Z,18.63
2019-06-07T06:06:12.924Z,18.47
2019-06-07T06:08:42.494Z,17.57
2019-06-07T06:11:11.058Z,20.07
2019-06-07T06:14:01.474Z,17.63
2019-06-07T06:16:09.248Z,18.43
2019-06-07T06:18:38.018Z,17.30
2019-06-07T06:21:18.066Z,16.90
2019-06-07T06:23:39.540Z,15.63
2019-06-07T06:26:06.458Z,18.73
2019-06-07T06:28:36.864Z,15.03
2019-06-07T06:31:04.592Z,17.23
2019-06-07T06:33:34.794Z,16.63
2019-06-07T06:36:02.794Z,15.23
2019-06-07T06:38:31.471Z,14.93
2019-06-07T06:41:15.454Z,14.93
2019-06-07T06:43:29.718Z,17.87
2019-06-07T06:45:58.026Z,15.03
2019-06-07T06:48:26.341Z,16.80
2019-06-07T06:50:54.568Z,15.37
2019-06-07T06:53:22.889Z,15.47
2019-06-07T06:55:51.513Z,16.10
2019-06-07T06:58:19.977Z,15.10
2019-06-07T07:01:05.775Z,13.73
2019-06-07T07:05:54.772Z,14.33
2019-06-07T07:08:21.136Z,16.07
2019-06-07T07:10:52.660Z,18.40
2019-06-07T07:13:19.520Z,16.17
2019-06-07T07:15:51.066Z,15.80
2019-06-07T07:18:17.721Z,15.93
2019-06-07T07:20:48.319Z,14.93
2019-06-07T07:23:17.413Z,18.20
2019-06-07T07:25:51.054Z,17.07
2019-06-07T07:28:15.724Z,14.53
2019-06-07T07:30:45.051Z,15.13
2019-06-07T07:33:13.340Z,14.37
2019-06-07T07:36:03.152Z,15.50
2019-06-07T07:38:11.718Z,17.00
2019-06-07T07:41:04.934Z,14.20
2019-06-07T07:43:09.984Z,18.07
2019-06-07T07:45:38.676Z,18.33
2019-06-07T07:48:15.596Z,16.33
2019-06-07T07:50:36.952Z,17.73
2019-06-07T07:53:05.353Z,16.70
2019-06-07T07:55:33.685Z,15.20
2019-06-07T07:58:02.075Z,14.80
2019-06-07T08:00:52.277Z,14.53
2019-06-07T08:03:04.274Z,14.20
2019-06-07T08:05:42.328Z,14.13
2019-06-07T08:08:04.906Z,15.23
2019-06-07T08:10:30.521Z,13.67
2019-06-07T08:13:22.153Z,17.30
2019-06-07T08:15:28.748Z,14.50
2019-06-07T08:18:03.296Z,14.73
2019-06-07T08:20:26.883Z,13.57
2019-06-07T08:22:59.101Z,15.40
2019-06-07T08:25:25.322Z,14.23
2019-06-07T08:27:56.004Z,16.27
2019-06-07T08:30:48.186Z,14.60
2019-06-07T08:32:58.815Z,15.90
2019-06-07T08:36:03.037Z,13.40
2019-06-07T08:38:22.143Z,13.67
2019-06-07T08:40:23.217Z,11.97
2019-06-07T08:43:10.953Z,11.23
2019-06-07T08:45:21.572Z,13.93
2019-06-07T08:47:56.501Z,12.80
2019-06-07T08:50:20.710Z,15.17
2019-06-07T08:52:54.736Z,12.30
2019-06-07T08:55:19.372Z,12.93
2019-06-07T08:57:47.628Z,12.47
2019-06-07T09:00:43.200Z,12.53
2019-06-07T09:02:46.400Z,14.03
2019-06-07T09:05:14.724Z,13.87
2019-06-07T09:07:42.951Z,11.90
2019-06-07T09:10:14.570Z,13.67
2019-06-07T09:12:42.692Z,11.93
2019-06-07T09:15:21.419Z,14.17
2019-06-07T09:18:29.700Z,12.87
2019-06-07T09:20:35.220Z,11.33
2019-06-07T09:22:43.045Z,12.03
2019-06-07T09:25:20.532Z,12.00
2019-06-07T09:27:42.842Z,12.10
2019-06-07T09:30:18.409Z,12.83
2019-06-07T09:32:42.284Z,14.10
2019-06-07T09:35:16.987Z,9.97
2019-06-07T09:38:07.378Z,11.93
2019-06-07T09:40:24.905Z,10.13
2019-06-07T09:42:40.724Z,11.97
2019-06-07T09:45:12.329Z,13.17
2019-06-07T09:47:38.914Z,10.37
2019-06-07T09:50:11.408Z,10.83
2019-06-07T09:52:56.909Z,10.73
2019-06-07T09:55:21.709Z,9.83
2019-06-07T09:57:37.237Z,21.83
2019-06-07T10:00:38.153Z,10.30
2019-06-07T10:02:37.194Z,10.10
2019-06-07T10:05:13.369Z,11.60
2019-06-07T10:07:36.657Z,11.20
2019-06-07T10:10:22.349Z,12.47
2019-06-07T10:12:34.925Z,10.97
2019-06-07T10:15:05.288Z,10.33
2019-06-07T10:17:33.592Z,14.47
2019-06-07T10:20:02.538Z,10.20
2019-06-07T10:22:31.920Z,11.67
2019-06-07T10:25:00.190Z,10.33
2019-06-07T10:27:28.405Z,11.30
2019-06-07T10:29:56.687Z,11.23
2019-06-07T10:32:25.017Z,13.47
2019-06-07T10:34:53.246Z,11.07
2019-06-07T10:37:21.569Z,9.43
2019-06-07T10:39:49.814Z,11.63
2019-06-07T10:42:18.157Z,12.67
2019-06-07T10:44:46.429Z,10.37
2019-06-07T10:47:14.753Z,9.93
2019-06-07T10:49:43.020Z,10.37
2019-06-07T10:52:11.629Z,11.17
2019-06-07T10:54:41.317Z,10.93
2019-06-07T10:57:13.827Z,9.10
2019-06-07T10:59:39.442Z,10.90
2019-06-07T11:02:07.997Z,9.77
2019-06-07T11:04:36.304Z,11.20
2019-06-07T11:07:06.295Z,10.33
2019-06-07T11:09:34.572Z,10.40
2019-06-07T11:12:04.235Z,9.83
2019-06-07T11:14:32.616Z,12.60
2019-06-07T11:17:00.941Z,10.80
2019-06-07T11:19:29.233Z,11.63
2019-06-07T11:21:57.485Z,12.27
2019-06-07T11:24:25.709Z,10.20
2019-06-07T11:26:54.093Z,8.77
2019-06-07T11:29:22.327Z,10.57
2019-06-07T11:31:50.636Z,10.43
2019-06-07T11:34:18.968Z,9.03
2019-06-07T11:36:47.196Z,10.03
2019-06-07T11:39:15.423Z,9.53
2019-06-07T11:41:43.678Z,9.67
2019-06-07T11:44:12.992Z,9.00
2019-06-07T11:46:41.697Z,10.50
2019-06-07T11:49:10.899Z,11.70
2019-06-07T11:51:39.652Z,11.43
2019-06-07T11:54:07.949Z,8.70
2019-06-07T11:56:36.272Z,10.93
2019-06-07T11:59:04.568Z,8.97
2019-06-07T12:01:32.892Z,8.77
2019-06-07T12:04:01.110Z,9.00
2019-06-07T12:06:29.362Z,9.70
2019-06-07T12:08:57.579Z,8.27
2019-06-07T12:11:25.900Z,8.47
2019-06-07T12:13:54.122Z,8.83
2019-06-07T12:16:22.441Z,6.70
2019-06-07T12:18:50.733Z,10.00
2019-06-07T12:21:19.909Z,9.07
2019-06-07T12:23:48.487Z,8.40
2019-06-07T12:26:16.773Z,9.63
2019-06-07T12:28:45.025Z,9.23
2019-06-07T12:31:14.923Z,8.33
2019-06-07T12:33:43.335Z,9.07
2019-06-07T12:36:11.616Z,7.83
2019-06-07T12:38:39.864Z,7.13
2019-06-07T12:41:08.164Z,7.27
2019-06-07T12:43:36.499Z,8.57
2019-06-07T12:46:04.764Z,9.30
2019-06-07T12:48:33.092Z,9.97
2019-06-07T12:51:01.324Z,7.33
2019-06-07T12:53:29.637Z,7.20
2019-06-07T12:56:00.111Z,10.27
2019-06-07T12:58:34.488Z,8.33
2019-06-07T13:00:59.792Z,8.40
2019-06-07T13:03:27.669Z,7.10
2019-06-07T13:05:55.899Z,7.00
2019-06-07T13:08:24.148Z,8.70
2019-06-07T13:10:52.439Z,6.47
2019-06-07T13:13:22.340Z,7.87
2019-06-07T13:15:50.647Z,7.47
2019-06-07T13:18:19.828Z,9.73
2019-06-07T13:20:48.848Z,8.83
2019-06-07T13:23:19.145Z,6.20
2019-06-07T13:25:47.184Z,8.73
2019-06-07T13:28:17.096Z,8.50
2019-06-07T13:30:45.373Z,8.23
2019-06-07T13:33:13.662Z,6.60
2019-06-07T13:35:41.913Z,9.17
2019-06-07T13:38:11.788Z,6.87
2019-06-07T13:40:40.037Z,7.95
2019-06-07T13:43:08.332Z,6.83
2019-06-07T13:45:36.719Z,7.42
2019-06-07T13:48:05.005Z,9.25
2019-06-07T13:50:33.253Z,7.37
2019-06-07T13:53:01.476Z,7.42
2019-06-07T13:55:29.720Z,9.28
2019-06-07T13:57:57.944Z,9.40
2019-06-07T14:00:26.615Z,6.55
2019-06-07T14:02:55.076Z,6.50
2019-06-07T14:05:23.324Z,8.50
2019-06-07T14:07:51.563Z,5.70
2019-06-07T14:10:19.809Z,6.00
2019-06-07T14:12:49.726Z,7.72
2019-06-07T14:15:18.518Z,6.28
2019-06-07T14:17:47.445Z,5.20
2019-06-07T14:20:16.115Z,7.25
2019-06-07T14:22:45.389Z,7.80
2019-06-07T14:25:13.966Z,7.67
2019-06-07T14:27:42.286Z,9.00
2019-06-07T14:30:11.084Z,9.80
2019-06-07T14:32:39.392Z,8.03
2019-06-07T14:35:14.619Z,7.80
2019-06-07T14:37:43.040Z,7.67
2019-06-07T14:40:13.387Z,6.80
2019-06-07T14:42:42.222Z,6.63
2019-06-07T14:45:11.284Z,8.73
2019-06-07T14:47:39.964Z,6.53
2019-06-07T14:50:09.440Z,7.43
2019-06-07T14:52:37.883Z,7.17
2019-06-07T14:55:06.817Z,9.23
2019-06-07T14:57:37.814Z,7.33
2019-06-07T15:00:11.492Z,6.13
2019-06-07T15:02:39.954Z,8.80
2019-06-07T15:05:10.703Z,7.10
2019-06-07T15:07:40.741Z,6.07
2019-06-07T15:10:10.622Z,6.47
2019-06-07T15:12:39.952Z,7.57
2019-06-07T15:15:08.767Z,6.27
2019-06-07T15:17:37.085Z,7.17
2019-06-07T15:20:08.400Z,7.87
2019-06-07T15:22:38.437Z,8.20
2019-06-07T15:25:07.060Z,8.03
2019-06-07T15:27:35.382Z,7.63
2019-06-07T15:30:10.040Z,8.37
2019-06-07T15:32:35.640Z,5.80
2019-06-07T15:35:06.256Z,7.33
2019-06-07T15:37:35.011Z,6.87
2019-06-07T15:40:04.014Z,13.37
2019-06-07T15:42:42.765Z,6.20
2019-06-07T15:45:02.185Z,6.97
2019-06-07T15:47:31.618Z,7.90
2019-06-07T15:50:00.147Z,7.07
2019-06-07T15:52:28.984Z,7.97
2019-06-07T15:54:57.888Z,7.10
2019-06-07T15:57:26.688Z,8.83
2019-06-07T15:59:55.584Z,6.73
2019-06-07T16:02:24.012Z,7.27
2019-06-07T16:04:52.965Z,8.40
2019-06-07T16:07:21.949Z,10.73
2019-06-07T16:09:50.832Z,6.90
2019-06-07T16:12:19.145Z,7.27
2019-06-07T16:14:47.527Z,9.00
2019-06-07T16:17:15.876Z,7.23
2019-06-07T16:19:46.488Z,9.43
2019-06-07T16:22:14.145Z,8.73
2019-06-07T16:24:43.863Z,10.53
2019-06-07T16:27:12.558Z,7.40
2019-06-07T16:29:42.712Z,7.63
2019-06-07T16:32:11.460Z,6.73
2019-06-07T16:34:40.209Z,6.83
2019-06-07T16:37:09.864Z,7.90
2019-06-07T16:39:38.554Z,7.37
2019-06-07T16:42:06.847Z,6.57
2019-06-07T16:44:36.346Z,7.07
2019-06-07T16:47:05.113Z,8.03
2019-06-07T16:49:33.821Z,8.40
2019-06-07T16:52:02.144Z,11.10
2019-06-07T16:54:35.476Z,7.23
2019-06-07T16:57:02.783Z,11.57
2019-06-07T16:59:31.104Z,11.73
2019-06-07T17:01:59.357Z,8.37
2019-06-07T17:04:27.652Z,10.07
2019-06-07T17:06:55.992Z,8.93
2019-06-07T17:09:24.225Z,8.87
2019-06-07T17:11:52.500Z,8.67
2019-06-07T17:14:20.696Z,11.73
2019-06-07T17:16:50.315Z,7.57
2019-06-07T17:19:18.780Z,9.93
2019-06-07T17:21:47.526Z,7.87
2019-06-07T17:24:16.224Z,7.03
2019-06-07T17:26:45.519Z,7.50
2019-06-07T17:29:14.097Z,10.77
2019-06-07T17:31:42.498Z,9.20
2019-06-07T17:34:11.038Z,7.20
2019-06-07T17:36:40.282Z,8.23
2019-06-07T17:39:08.933Z,9.60
2019-06-07T17:41:50.462Z,8.97
2019-06-07T17:44:07.471Z,8.63
2019-06-07T17:46:35.776Z,10.33
2019-06-07T17:49:04.165Z,14.70
2019-06-07T17:51:32.412Z,8.27
2019-06-07T17:54:00.634Z,10.23
2019-06-07T17:56:28.872Z,7.13
2019-06-07T17:58:57.101Z,16.03
2019-06-07T18:01:38.438Z,10.07
2019-06-07T18:03:55.631Z,9.03
2019-06-07T18:06:23.952Z,8.70
2019-06-07T18:08:53.541Z,13.13
2019-06-07T18:11:23.185Z,11.13
2019-06-07T18:14:06.575Z,12.03
2019-06-07T18:16:21.363Z,8.60
2019-06-07T18:18:50.649Z,10.37
2019-06-07T18:21:19.009Z,9.27
2019-06-07T18:23:48.306Z,9.10
2019-06-07T18:26:16.653Z,12.53
2019-06-07T18:28:44.945Z,10.97
2019-06-07T18:31:13.329Z,12.07
2019-06-07T18:33:41.552Z,11.27
2019-06-07T18:36:09.783Z,10.73
2019-06-07T18:38:38.028Z,10.97
2019-06-07T18:41:06.328Z,10.90
2019-06-07T18:43:34.657Z,11.17
2019-06-07T18:46:02.879Z,11.37
2019-06-07T18:48:31.203Z,12.47
2019-06-07T18:50:59.506Z,10.13
2019-06-07T18:53:27.836Z,13.73
2019-06-07T18:55:56.281Z,8.50
2019-06-07T18:58:24.713Z,12.03
2019-06-07T19:00:53.813Z,8.90
2019-06-07T19:03:22.866Z,7.50
2019-06-07T19:05:52.148Z,9.47
2019-06-07T19:08:20.801Z,10.30
2019-06-07T19:10:49.028Z,6.73
2019-06-07T19:13:17.357Z,8.47
2019-06-07T19:15:45.657Z,7.17
2019-06-07T19:18:13.989Z,5.60
2019-06-07T19:20:42.306Z,5.00
2019-06-07T19:23:10.527Z,6.23
2019-06-07T19:25:38.865Z,7.83
2019-06-07T19:28:07.081Z,5.83
2019-06-07T19:30:35.327Z,4.73
2019-06-07T19:33:03.716Z,4.00
2019-06-07T19:35:31.944Z,4.40
2019-06-07T19:38:00.477Z,7.07
2019-06-07T19:40:28.908Z,5.07
2019-06-07T19:42:58.484Z,4.10
2019-06-07T19:45:30.988Z,3.37
2019-06-07T19:47:56.998Z,5.87
2019-06-07T19:50:25.290Z,5.07
2019-06-07T19:52:54.926Z,7.33
2019-06-07T19:55:23.921Z,6.97
2019-06-07T19:57:55.393Z,5.90
2019-06-07T20:00:23.787Z,2.93
2019-06-07T20:02:52.012Z,9.23
2019-06-07T20:05:20.305Z,6.93
2019-06-07T20:07:48.560Z,4.23
2019-06-07T20:10:17.107Z,7.13
2019-06-07T20:12:45.941Z,5.70
2019-06-07T20:15:27.843Z,7.67
2019-06-07T20:17:45.020Z,8.37
2019-06-07T20:20:14.061Z,9.10
2019-06-07T20:22:42.425Z,6.27
2019-06-07T20:25:11.235Z,3.47
2019-06-07T20:27:39.792Z,9.07
2019-06-07T20:30:09.113Z,4.07
2019-06-07T20:32:37.741Z,5.87
2019-06-07T20:35:08.021Z,6.30
2019-06-07T20:37:37.401Z,7.77
2019-06-07T20:40:19.497Z,2.80
2019-06-07T20:42:37.499Z,4.00
2019-06-07T20:45:06.449Z,5.80
2019-06-07T20:47:34.938Z,7.30
2019-06-07T20:50:04.341Z,8.57
2019-06-07T20:52:32.668Z,4.10
2019-06-07T20:55:02.794Z,10.20
2019-06-07T20:57:31.541Z,5.03
2019-06-07T21:00:09.905Z,6.50
2019-06-07T21:02:30.809Z,6.73
2019-06-07T21:04:59.133Z,6.33
2019-06-07T21:07:27.351Z,3.53
2019-06-07T21:09:55.603Z,5.80
2019-06-07T21:12:24.271Z,4.93
2019-06-07T21:14:52.476Z,7.13
2019-06-07T21:17:20.706Z,14.30
2019-06-07T21:19:48.954Z,5.63
2019-06-07T21:22:17.173Z,7.43
2019-06-07T21:24:45.496Z,8.63
2019-06-07T21:27:13.858Z,6.03
2019-06-07T21:29:42.157Z,6.00
2019-06-07T21:32:11.703Z,12.57
2019-06-07T21:34:40.204Z,7.10
2019-06-07T21:37:09.983Z,10.63
2019-06-07T21:39:38.541Z,3.67
2019-06-07T21:42:08.082Z,5.90
2019-06-07T21:44:36.617Z,7.00
2019-06-07T21:47:04.844Z,9.27
2019-06-07T21:49:33.800Z,6.20
2019-06-07T21:52:02.531Z,4.13
2019-06-07T21:54:30.848Z,6.27
2019-06-07T21:56:59.176Z,9.87
2019-06-07T21:59:27.391Z,6.50
2019-06-07T22:01:56.124Z,7.10
2019-06-07T22:04:24.487Z,6.70
2019-06-07T22:06:52.694Z,10.20
2019-06-07T22:09:21.015Z,6.30
2019-06-07T22:11:49.332Z,5.90
2019-06-07T22:14:17.657Z,8.77
2019-06-07T22:16:45.954Z,8.23
2019-06-07T22:19:14.913Z,6.67
2019-06-07T22:21:43.416Z,12.13
2019-06-07T22:24:12.952Z,6.60
2019-06-07T22:26:41.357Z,8.57
2019-06-07T22:29:10.330Z,5.87
2019-06-07T22:31:38.807Z,11.47
2019-06-07T22:34:07.052Z,8.60
2019-06-07T22:36:35.393Z,7.23
2019-06-07T22:39:04.864Z,7.23
2019-06-07T22:41:33.112Z,9.03
2019-06-07T22:44:01.344Z,15.67
2019-06-07T22:46:37.359Z,6.27
2019-06-07T22:48:59.581Z,6.30
2019-06-07T22:51:27.872Z,9.53
2019-06-07T22:53:56.215Z,12.67
2019-06-07T22:56:26.401Z,5.23
2019-06-07T22:58:54.688Z,7.07
2019-06-07T23:01:23.103Z,5.33
2019-06-07T23:03:51.321Z,7.27
2019-06-07T23:06:19.573Z,4.83
2019-06-07T23:08:47.873Z,4.40
2019-06-07T23:11:17.224Z,4.03
2019-06-07T23:13:45.812Z,4.57
2019-06-07T23:16:14.109Z,4.73
2019-06-07T23:18:42.465Z,4.90
2019-06-07T23:21:20.822Z,4.97
2019-06-07T23:23:47.307Z,7.03
2019-06-07T23:26:16.214Z,5.50
2019-06-07T23:28:44.617Z,8.40
2019-06-07T23:31:12.876Z,8.40
2019-06-07T23:33:41.106Z,5.07
2019-06-07T23:36:10.902Z,4.27
2019-06-07T23:38:39.408Z,6.47
2019-06-07T23:41:07.637Z,6.70
2019-06-07T23:43:35.888Z,3.57
2019-06-07T23:46:04.177Z,4.50
2019-06-07T23:48:32.439Z,5.50
2019-06-07T23:51:00.676Z,7.27
2019-06-07T23:53:28.902Z,4.23
2019-06-07T23:55:57.126Z,5.40
2019-06-07T23:58:25.343Z,5.93
